Terminal Aerodrome Forecast
Issued by NWS

Home | Current Version | Previous Version | Graphics & Text | Print | Product List | Glossary On
Versions: 1 2 3 4 5 6 7 8 9 10 11 12 13
075
FTUS43 KABR 271424 AAB
TAFMBG
TAF AMD
KMBG 271424Z 2714/2812 14004KT 3/4SM BR BKN001
     FM271450 15005KT 1 1/2SM BR BKN002
     FM271500 15005KT P6SM FEW150=

USA.gov is the U.S. government's official web portal to all federal, state and local government web resources and services.